Time;durP1;ratioP1;P1;durP2;ratioP2;P2;SDS_P1;SDS_P2;PMS_P1;PMS_P2;Temp;Humidity;BMP_temperature;BMP_pressure;BME280_temperature;BME280_humidity;BME280_pressure;Samples;Min_cycle;Max_cycle;Signal;HPM_P1;HPM_P2
2023/12/02 00:00:40;;;;;;;21.40;11.43;;;;;;;-0.79;76.67;100169.97;5022470;28;20041;-66
2023/12/02 00:03:05;;;;;;;22.08;12.50;;;;;;;-0.77;75.78;100150.59;5053903;28;20043;-66
2023/12/02 00:05:31;;;;;;;23.50;12.63;;;;;;;-0.77;76.36;100155.66;5022078;28;20420;-66
2023/12/02 00:07:56;;;;;;;25.25;13.00;;;;;;;-0.76;75.81;100153.97;5023000;28;20378;-66
2023/12/02 00:10:22;;;;;;;22.95;12.48;;;;;;;-0.78;75.73;100150.56;5020626;28;21235;-66
2023/12/02 00:12:48;;;;;;;20.10;11.90;;;;;;;-0.82;76.08;100153.81;5040828;28;20113;-66
2023/12/02 00:15:13;;;;;;;22.42;11.10;;;;;;;-0.81;75.55;100153.00;5024742;28;20038;-66
2023/12/02 00:17:39;;;;;;;21.73;13.10;;;;;;;-0.80;75.96;100157.25;5027355;28;20045;-66
2023/12/02 00:20:05;;;;;;;22.23;12.77;;;;;;;-0.77;76.57;100167.47;5057514;28;20061;-67
2023/12/02 00:22:30;;;;;;;25.00;13.15;;;;;;;-0.77;77.22;100190.31;5057617;28;20112;-68
2023/12/02 00:24:56;;;;;;;25.75;12.60;;;;;;;-0.76;77.46;100194.56;5031553;28;20079;-67
2023/12/02 00:27:21;;;;;;;25.25;12.90;;;;;;;-0.78;77.40;100192.00;5024131;28;20037;-67
2023/12/02 00:29:47;;;;;;;30.75;15.35;;;;;;;-0.75;77.75;100203.91;5022741;28;20117;-68
2023/12/02 00:32:12;;;;;;;28.52;14.45;;;;;;;-0.80;77.17;100193.63;5055266;28;20033;-68
2023/12/02 00:34:38;;;;;;;23.05;12.50;;;;;;;-0.86;78.00;100198.53;5056724;28;20041;-68
2023/12/02 00:37:03;;;;;;;23.65;12.77;;;;;;;-0.84;77.90;100203.66;5023385;28;20025;-67
2023/12/02 00:39:29;;;;;;;23.02;13.07;;;;;;;-0.83;78.20;100208.75;5021596;28;20033;-68
2023/12/02 00:41:54;;;;;;;23.70;12.23;;;;;;;-0.82;77.81;100197.81;5037209;28;20116;-68
2023/12/02 00:44:20;;;;;;;23.13;11.85;;;;;;;-0.85;77.21;100191.78;5020540;28;20115;-68
2023/12/02 00:46:45;;;;;;;22.05;11.23;;;;;;;-0.87;77.13;100196.84;5023192;28;20036;-69
2023/12/02 00:49:11;;;;;;;22.70;12.65;;;;;;;-0.90;77.37;100198.41;5024378;28;20029;-68
2023/12/02 00:51:37;;;;;;;21.20;11.40;;;;;;;-0.94;77.31;100192.41;5022262;28;20045;-68
2023/12/02 00:54:02;;;;;;;22.17;11.07;;;;;;;-0.93;76.86;100195.78;5008042;28;20048;-68
2023/12/02 00:56:28;;;;;;;22.38;12.10;;;;;;;-0.93;76.38;100170.44;5025104;28;20060;-68
2023/12/02 00:58:53;;;;;;;20.52;11.00;;;;;;;-0.92;76.51;100179.75;5023833;28;20044;-69
2023/12/02 01:01:19;;;;;;;23.65;12.65;;;;;;;-0.90;77.89;100201.81;5006837;28;20037;-68
2023/12/02 01:03:44;;;;;;;21.25;11.15;;;;;;;-0.89;77.19;100200.13;5024703;28;20033;-68
2023/12/02 01:06:10;;;;;;;22.63;11.75;;;;;;;-0.91;77.08;100191.63;5024835;28;20033;-69
2023/12/02 01:08:35;;;;;;;23.42;12.15;;;;;;;-0.92;76.72;100175.53;5022663;28;20068;-68
2023/12/02 01:11:01;;;;;;;23.45;12.35;;;;;;;-0.89;77.55;100198.44;5022480;28;20124;-68
2023/12/02 01:13:27;;;;;;;21.38;12.05;;;;;;;-0.91;78.36;100219.50;5019871;28;20040;-68
2023/12/02 01:15:52;;;;;;;19.20;10.95;;;;;;;-0.94;79.02;100232.97;5055889;28;20029;-68
2023/12/02 01:18:18;;;;;;;21.60;11.77;;;;;;;-0.93;78.98;100231.31;5025436;28;20048;-68
2023/12/02 01:20:44;;;;;;;21.15;12.00;;;;;;;-0.91;79.40;100242.34;5007161;28;20044;-68
2023/12/02 01:23:09;;;;;;;26.25;11.95;;;;;;;-0.92;78.11;100220.31;5023533;28;20125;-68
2023/12/02 01:25:34;;;;;;;22.73;11.77;;;;;;;-0.94;77.75;100215.22;5018836;28;20139;-68
2023/12/02 01:28:00;;;;;;;20.50;10.90;;;;;;;-0.93;78.08;100218.63;5004139;28;20053;-68
2023/12/02 01:30:27;;;;;;;21.10;11.32;;;;;;;-0.98;78.82;100252.31;5020255;28;20235;-68
2023/12/02 01:32:53;;;;;;;22.75;11.68;;;;;;;-0.95;78.97;100261.69;5022891;28;20110;-68
2023/12/02 01:35:18;;;;;;;20.38;10.88;;;;;;;-0.99;78.77;100249.75;5015957;28;20671;-67
2023/12/02 01:37:43;;;;;;;21.10;11.43;;;;;;;-1.00;77.98;100241.28;5025211;28;20692;-68
2023/12/02 01:40:11;;;;;;;22.00;11.48;;;;;;;-1.02;78.15;100239.50;5021581;28;20657;-68
2023/12/02 01:42:36;;;;;;;21.75;11.57;;;;;;;-1.03;77.51;100235.25;5025459;28;20118;-67
2023/12/02 01:45:02;;;;;;;23.13;11.43;;;;;;;-1.04;78.02;100234.38;5026373;28;20614;-68
2023/12/02 01:47:27;;;;;;;18.52;10.75;;;;;;;-1.04;77.84;100220.84;5024338;28;20034;-68
2023/12/02 01:49:55;;;;;;;22.13;11.60;;;;;;;-1.02;77.31;100217.53;5057681;28;20083;-68
2023/12/02 01:52:21;;;;;;;17.35;9.98;;;;;;;-1.02;77.10;100226.84;5055184;28;20053;-68
2023/12/02 01:54:46;;;;;;;18.83;10.25;;;;;;;-1.00;78.60;100268.31;5023038;28;20145;-68
2023/12/02 01:57:13;;;;;;;21.50;10.50;;;;;;;-1.04;78.32;100262.28;5021150;28;20615;-68
2023/12/02 01:59:45;;;;;;;19.80;10.98;;;;;;;-1.03;79.52;100279.22;5020060;28;20041;-68
2023/12/02 02:02:10;;;;;;;19.48;11.32;;;;;;;-0.99;79.67;100282.72;5023102;28;20140;-68
2023/12/02 02:04:36;;;;;;;19.83;10.52;;;;;;;-1.04;79.49;100274.09;5038620;28;20063;-69
2023/12/02 02:07:01;;;;;;;21.90;11.52;;;;;;;-1.02;79.49;100283.47;5022572;28;20026;-68
2023/12/02 02:09:33;;;;;;;18.73;10.30;;;;;;;-1.04;78.96;100269.03;5041613;28;20590;-68
2023/12/02 02:11:59;;;;;;;20.45;10.60;;;;;;;-1.07;78.52;100268.94;5022465;28;20068;-68
2023/12/02 02:14:24;;;;;;;18.42;10.88;;;;;;;-1.05;78.34;100264.78;5036876;28;20065;-68
2023/12/02 02:16:50;;;;;;;23.42;11.45;;;;;;;-1.05;78.67;100264.78;5023490;28;20407;-68
2023/12/02 02:19:17;;;;;;;22.30;10.55;;;;;;;-1.07;79.54;100286.69;5052072;28;20029;-68
2023/12/02 02:21:43;;;;;;;19.92;11.55;;;;;;;-1.06;79.81;100294.34;5021431;28;20075;-68
2023/12/02 02:24:08;;;;;;;20.55;10.82;;;;;;;-1.10;79.64;100287.44;5060027;28;20056;-68
2023/12/02 02:26:34;;;;;;;19.77;12.18;;;;;;;-1.06;80.55;100308.69;5027563;28;20042;-68
2023/12/02 02:28:59;;;;;;;20.73;10.32;;;;;;;-1.05;80.69;100318.03;5024174;28;20693;-68
2023/12/02 02:31:25;;;;;;;21.27;10.77;;;;;;;-1.07;80.42;100306.97;5025182;28;20025;-68
2023/12/02 02:33:50;;;;;;;19.40;10.70;;;;;;;-1.09;78.89;100271.44;5022218;28;20143;-68
2023/12/02 02:36:16;;;;;;;22.67;11.40;;;;;;;-1.07;78.06;100262.19;5026748;28;20045;-68
2023/12/02 02:38:41;;;;;;;18.45;10.60;;;;;;;-1.11;77.44;100250.25;5027722;28;20037;-68
2023/12/02 02:41:07;;;;;;;18.95;10.65;;;;;;;-1.11;78.69;100287.41;5025439;28;20036;-68
2023/12/02 02:43:32;;;;;;;19.45;10.95;;;;;;;-1.13;77.18;100243.38;5027609;28;20053;-67
2023/12/02 02:45:58;;;;;;;19.02;10.98;;;;;;;-1.19;77.60;100250.81;5027394;28;20029;-67
2023/12/02 02:48:23;;;;;;;19.88;10.77;;;;;;;-1.22;76.96;100241.44;5023060;28;20049;-68
2023/12/02 02:50:48;;;;;;;16.52;9.38;;;;;;;-1.24;77.27;100248.16;5026936;28;20512;-68
2023/12/02 02:53:14;;;;;;;17.42;9.80;;;;;;;-1.24;76.60;100237.16;5056079;28;20030;-68
2023/12/02 02:55:39;;;;;;;17.08;9.77;;;;;;;-1.23;76.59;100243.94;5041589;28;20037;-68
2023/12/02 02:58:05;;;;;;;20.02;10.57;;;;;;;-1.25;77.18;100258.22;5060947;28;20527;-69
2023/12/02 03:00:30;;;;;;;18.15;10.13;;;;;;;-1.24;77.38;100258.28;5059634;28;20055;-68
2023/12/02 03:02:56;;;;;;;17.10;9.73;;;;;;;-1.23;76.97;100249.88;5060917;28;20033;-68
2023/12/02 03:05:21;;;;;;;16.95;9.57;;;;;;;-1.21;77.55;100266.00;5054779;28;20045;-68
2023/12/02 03:07:47;;;;;;;19.05;9.75;;;;;;;-1.22;78.11;100288.75;5024555;28;20032;-68
2023/12/02 03:10:12;;;;;;;19.38;10.52;;;;;;;-1.20;79.13;100308.28;5027703;28;20396;-68
2023/12/02 03:12:38;;;;;;;17.17;10.07;;;;;;;-1.20;78.15;100277.88;5028712;28;20484;-68
2023/12/02 03:15:04;;;;;;;18.42;10.30;;;;;;;-1.15;78.88;100298.28;5022998;28;20054;-68
2023/12/02 03:17:29;;;;;;;20.67;10.75;;;;;;;-1.19;79.26;100306.59;5027486;28;20029;-68
2023/12/02 03:19:54;;;;;;;17.67;10.80;;;;;;;-1.15;79.07;100308.41;5057752;28;20703;-68
2023/12/02 03:22:20;;;;;;;21.00;11.48;;;;;;;-1.15;79.12;100304.22;5021308;28;20401;-68
2023/12/02 03:24:46;;;;;;;18.02;10.05;;;;;;;-1.15;79.31;100305.88;5058736;28;20073;-68
2023/12/02 03:27:11;;;;;;;18.60;10.00;;;;;;;-1.20;78.88;100292.22;5022729;28;20619;-68
2023/12/02 03:29:37;;;;;;;18.60;10.25;;;;;;;-1.16;79.19;100299.94;5023031;28;20045;-68
2023/12/02 03:32:02;;;;;;;18.17;9.82;;;;;;;-1.17;77.70;100272.03;5025201;28;20564;-68
2023/12/02 03:34:28;;;;;;;14.35;9.43;;;;;;;-1.18;77.51;100262.69;5025619;28;20412;-69
2023/12/02 03:36:53;;;;;;;14.85;9.43;;;;;;;-1.16;77.82;100278.78;5064041;28;20044;-68
2023/12/02 03:39:19;;;;;;;15.77;10.10;;;;;;;-1.18;77.67;100283.84;5063886;28;20117;-67
2023/12/02 03:41:44;;;;;;;18.75;9.48;;;;;;;-1.21;77.08;100263.47;5031440;28;20021;-67
2023/12/02 03:44:10;;;;;;;14.55;8.70;;;;;;;-1.16;77.23;100271.19;5041933;28;20041;-67
2023/12/02 03:46:36;;;;;;;14.05;8.52;;;;;;;-1.19;77.58;100268.56;5020740;28;20099;-68
2023/12/02 03:49:02;;;;;;;14.88;8.50;;;;;;;-1.16;76.98;100268.66;5025282;28;20062;-67
2023/12/02 03:51:28;;;;;;;14.77;8.45;;;;;;;-1.13;77.75;100281.41;5060547;28;20044;-68
2023/12/02 03:53:53;;;;;;;15.20;9.15;;;;;;;-1.18;77.88;100295.66;5025254;28;20034;-67
2023/12/02 03:56:20;;;;;;;15.27;9.20;;;;;;;-1.16;78.56;100310.09;5022323;28;20038;-67
2023/12/02 03:58:46;;;;;;;16.05;8.77;;;;;;;-1.19;78.79;100322.66;5054701;28;20025;-67
2023/12/02 04:01:12;;;;;;;15.85;9.40;;;;;;;-1.15;79.12;100321.09;5024358;28;20017;-67
2023/12/02 04:03:37;;;;;;;15.10;9.55;;;;;;;-1.12;79.81;100334.75;5025213;28;20053;-67
2023/12/02 04:06:03;;;;;;;17.00;9.27;;;;;;;-1.12;79.91;100344.88;5005515;28;20556;-67
2023/12/02 04:08:29;;;;;;;17.77;9.35;;;;;;;-1.07;79.31;100323.06;5026185;28;20033;-67
2023/12/02 04:10:54;;;;;;;14.98;8.45;;;;;;;-1.06;79.56;100332.38;5025023;28;20516;-67
2023/12/02 04:13:20;;;;;;;16.63;9.20;;;;;;;-1.04;79.91;100351.03;5058278;28;20036;-68
2023/12/02 04:15:46;;;;;;;15.25;9.38;;;;;;;-1.03;80.41;100356.97;5023137;28;20041;-68
2023/12/02 04:18:12;;;;;;;16.05;9.18;;;;;;;-1.02;81.17;100377.31;5019758;28;20517;-67
2023/12/02 04:20:37;;;;;;;15.65;8.77;;;;;;;-1.06;80.27;100365.38;5020936;28;20111;-67
2023/12/02 04:23:04;;;;;;;15.88;9.07;;;;;;;-1.06;81.02;100384.78;5020976;28;20038;-66
2023/12/02 04:25:30;;;;;;;16.02;8.80;;;;;;;-1.06;80.97;100389.84;5022514;28;20621;-68
2023/12/02 04:27:55;;;;;;;16.60;9.68;;;;;;;-1.07;80.22;100378.84;5025551;28;20033;-68
2023/12/02 04:30:21;;;;;;;20.75;10.15;;;;;;;-1.06;80.73;100379.72;5054398;28;20091;-68
2023/12/02 04:32:46;;;;;;;16.42;8.95;;;;;;;-1.06;80.38;100374.63;5019931;28;20095;-68
2023/12/02 04:35:12;;;;;;;28.85;11.05;;;;;;;-1.04;80.78;100381.47;5051353;28;20103;-67
2023/12/02 04:37:38;;;;;;;17.65;9.50;;;;;;;-1.06;79.48;100367.91;5023506;28;20384;-67
2023/12/02 04:40:04;;;;;;;20.15;9.20;;;;;;;-1.05;80.03;100372.16;5031013;28;20021;-67
2023/12/02 04:42:30;;;;;;;15.00;8.20;;;;;;;-1.06;79.27;100367.03;5021868;28;20044;-68
2023/12/02 04:44:55;;;;;;;14.40;8.38;;;;;;;-1.09;78.72;100359.31;5023273;28;20037;-67
2023/12/02 04:47:21;;;;;;;16.15;9.20;;;;;;;-1.06;80.37;100377.19;5048642;28;21294;-68
2023/12/02 04:49:46;;;;;;;16.35;8.80;;;;;;;-1.07;80.11;100380.50;5021282;28;20037;-68
2023/12/02 04:52:12;;;;;;;17.90;9.18;;;;;;;-1.11;79.99;100384.66;5020598;28;20029;-68
2023/12/02 04:54:37;;;;;;;16.23;8.95;;;;;;;-1.16;79.46;100378.56;5004397;28;20034;-68
2023/12/02 04:57:03;;;;;;;18.33;9.68;;;;;;;-1.12;80.32;100395.59;5020343;28;20088;-68
2023/12/02 04:59:28;;;;;;;14.70;8.50;;;;;;;-1.12;80.37;100402.34;5019932;28;20048;-68
2023/12/02 05:01:55;;;;;;;15.27;9.02;;;;;;;-1.12;80.39;100408.28;5021685;28;20045;-68
2023/12/02 05:04:20;;;;;;;15.40;9.18;;;;;;;-1.12;80.30;100408.28;5052325;28;20048;-68
2023/12/02 05:06:46;;;;;;;15.55;8.32;;;;;;;-1.11;80.28;100401.53;5055954;28;20041;-68
2023/12/02 05:09:12;;;;;;;15.80;9.32;;;;;;;-1.09;80.12;100400.75;5021154;28;20044;-68
2023/12/02 05:11:37;;;;;;;17.23;8.35;;;;;;;-1.05;79.84;100399.19;5015939;28;20045;-68
2023/12/02 05:14:03;;;;;;;14.68;8.57;;;;;;;-1.09;80.34;100404.97;5021196;28;20041;-68
2023/12/02 05:16:28;;;;;;;13.90;8.57;;;;;;;-1.07;80.29;100400.81;5061007;28;20126;-68
2023/12/02 05:18:54;;;;;;;18.00;8.98;;;;;;;-1.03;80.20;100402.63;5028488;28;20037;-68
2023/12/02 05:21:19;;;;;;;14.63;8.75;;;;;;;-1.05;80.35;100402.59;5029270;28;20373;-68
2023/12/02 05:23:45;;;;;;;16.10;9.23;;;;;;;-1.03;80.66;100415.31;5028397;28;20032;-68
2023/12/02 05:26:11;;;;;;;15.45;9.50;;;;;;;-1.01;80.48;100417.09;5020288;28;20045;-68
2023/12/02 05:28:38;;;;;;;18.63;9.43;;;;;;;-1.01;79.99;100413.69;5027181;28;20033;-68
2023/12/02 05:31:04;;;;;;;16.98;9.32;;;;;;;-1.00;80.70;100415.41;5026096;28;20117;-67
2023/12/02 05:33:29;;;;;;;15.98;10.48;;;;;;;-0.99;80.49;100425.59;5025686;28;20896;-68
2023/12/02 05:35:55;;;;;;;16.83;9.30;;;;;;;-1.05;80.00;100415.28;5023885;28;20042;-68
2023/12/02 05:38:20;;;;;;;15.43;8.63;;;;;;;-1.01;79.94;100413.69;5025567;28;20488;-68
2023/12/02 05:40:46;;;;;;;16.15;8.98;;;;;;;-1.01;80.84;100424.69;5021757;28;20044;-67
2023/12/02 05:43:11;;;;;;;16.40;9.27;;;;;;;-1.02;81.25;100437.34;5057327;28;20708;-67
2023/12/02 05:45:37;;;;;;;15.75;8.43;;;;;;;-1.03;80.44;100418.72;5022419;28;20037;-67
2023/12/02 05:48:02;;;;;;;16.15;8.88;;;;;;;-1.01;80.04;100426.34;5006769;28;20057;-67
2023/12/02 05:50:28;;;;;;;16.60;9.05;;;;;;;-0.99;80.14;100417.97;5023871;28;20109;-66
2023/12/02 05:52:53;;;;;;;14.68;8.30;;;;;;;-1.01;80.29;100431.44;5038321;28;20045;-67
2023/12/02 05:55:20;;;;;;;13.48;7.90;;;;;;;-0.98;80.90;100434.06;5041225;28;20029;-67
2023/12/02 05:57:46;;;;;;;13.68;7.93;;;;;;;-0.98;81.93;100459.44;5051519;28;20048;-67
2023/12/02 06:00:12;;;;;;;15.82;8.95;;;;;;;-0.98;80.73;100441.69;5023551;28;20509;-67
2023/12/02 06:02:37;;;;;;;16.55;8.98;;;;;;;-0.99;81.50;100462.81;5026925;28;20108;-67
2023/12/02 06:05:06;;;;;;;17.80;9.60;;;;;;;-0.98;81.69;100465.38;5024643;28;20064;-67
2023/12/02 06:07:32;;;;;;;16.92;8.98;;;;;;;-0.99;82.23;100478.84;5024408;28;20029;-67
2023/12/02 06:09:57;;;;;;;16.17;9.02;;;;;;;-0.98;82.16;100479.72;5022343;28;20030;-67
2023/12/02 06:12:23;;;;;;;15.43;8.55;;;;;;;-0.98;82.46;100483.13;5025559;28;20052;-67
2023/12/02 06:14:49;;;;;;;14.38;8.50;;;;;;;-1.00;82.33;100488.97;5035944;28;20057;-67
2023/12/02 06:17:15;;;;;;;17.80;9.70;;;;;;;-0.96;82.22;100485.72;5033794;28;20124;-67
2023/12/02 06:19:40;;;;;;;16.63;9.45;;;;;;;-0.93;81.84;100482.44;5054288;28;20464;-67
2023/12/02 06:22:06;;;;;;;15.50;9.05;;;;;;;-0.93;82.16;100497.66;5051384;28;20040;-67
2023/12/02 06:24:31;;;;;;;13.95;8.60;;;;;;;-0.93;82.18;100490.91;5025404;28;20040;-67
2023/12/02 06:26:56;;;;;;;16.42;9.18;;;;;;;-0.88;82.45;100502.06;5052786;28;20116;-67
2023/12/02 06:29:22;;;;;;;15.88;9.10;;;;;;;-0.87;82.21;100485.16;5019905;28;20042;-67
2023/12/02 06:31:50;;;;;;;14.48;8.43;;;;;;;-0.86;82.08;100489.41;5021227;28;20064;-66
2023/12/02 06:34:17;;;;;;;14.65;9.90;;;;;;;-0.85;81.22;100478.47;5053782;28;20043;-66
2023/12/02 06:36:44;;;;;;;17.58;10.85;;;;;;;-0.88;81.81;100483.44;5051649;28;20065;-66
2023/12/02 06:39:12;;;;;;;17.13;10.18;;;;;;;-0.89;80.96;100490.19;5022209;28;20522;-64
2023/12/02 06:41:38;;;;;;;19.65;10.18;;;;;;;-0.87;81.34;100493.66;5017086;28;20043;-63
2023/12/02 06:44:04;;;;;;;17.35;10.02;;;;;;;-0.87;81.04;100493.66;5056878;28;20038;-64
2023/12/02 06:46:29;;;;;;;20.27;11.27;;;;;;;-0.91;81.63;100507.03;5021953;28;20030;-65
2023/12/02 06:48:55;;;;;;;16.40;9.18;;;;;;;-0.89;82.70;100528.22;5021211;28;20029;-64
2023/12/02 06:51:21;;;;;;;18.48;10.55;;;;;;;-0.86;82.19;100518.19;5016686;28;20128;-63
2023/12/02 06:53:47;;;;;;;16.52;9.65;;;;;;;-0.83;81.47;100512.34;5023312;28;20501;-64
2023/12/02 06:56:21;;;;;;;19.10;10.85;;;;;;;-0.79;81.94;100512.50;5022348;28;20033;-64
2023/12/02 06:58:47;;;;;;;16.85;10.43;;;;;;;-0.77;82.34;100522.69;5022599;28;20266;-64
2023/12/02 07:01:30;;;;;;;22.15;11.57;;;;;;;-0.79;81.29;100497.28;5026647;28;20504;-64
2023/12/02 07:03:57;;;;;;;17.88;10.52;;;;;;;-0.76;80.79;100496.50;5037002;28;20067;-63
2023/12/02 07:06:23;;;;;;;22.20;10.90;;;;;;;-0.75;81.25;100508.41;5032168;28;20037;-64
2023/12/02 07:08:50;;;;;;;19.27;10.77;;;;;;;-0.72;81.62;100514.41;5026623;28;20057;-64
2023/12/02 07:11:17;;;;;;;16.15;9.38;;;;;;;-0.72;81.08;100505.97;5028045;28;20047;-65
2023/12/02 07:13:42;;;;;;;16.83;10.00;;;;;;;-0.74;81.15;100520.25;5030169;28;20095;-64
2023/12/02 07:16:08;;;;;;;16.70;9.93;;;;;;;-0.70;81.78;100527.16;5025863;28;20392;-64
2023/12/02 07:18:34;;;;;;;17.58;9.55;;;;;;;-0.67;81.93;100537.41;5020708;28;20068;-64
2023/12/02 07:21:00;;;;;;;18.38;11.27;;;;;;;-0.67;82.98;100565.34;5027298;28;20821;-65
2023/12/02 07:23:25;;;;;;;20.58;11.82;;;;;;;-0.63;81.98;100557.84;5019575;28;20034;-64
2023/12/02 07:25:52;;;;;;;20.48;12.32;;;;;;;-0.59;82.23;100558.81;5028713;28;20029;-65
2023/12/02 07:28:17;;;;;;;19.98;11.50;;;;;;;-0.58;82.60;100563.09;5029959;28;20103;-64
2023/12/02 07:30:43;;;;;;;19.17;11.25;;;;;;;-0.53;82.24;100571.72;5060477;28;20459;-66
2023/12/02 07:33:08;;;;;;;17.38;9.75;;;;;;;-0.53;82.23;100574.25;5028379;28;20044;-65
2023/12/02 07:35:34;;;;;;;19.00;11.40;;;;;;;-0.53;81.31;100562.44;5058247;28;20061;-65
2023/12/02 07:38:00;;;;;;;22.25;11.85;;;;;;;-0.46;81.59;100560.97;5028014;28;20029;-65
2023/12/02 07:40:25;;;;;;;25.40;11.82;;;;;;;-0.47;80.63;100546.53;5057574;28;20040;-65
2023/12/02 07:42:51;;;;;;;20.05;11.32;;;;;;;-0.49;80.54;100543.97;5054794;28;20115;-65
2023/12/02 07:45:16;;;;;;;19.23;10.75;;;;;;;-0.46;79.59;100518.66;5025168;28;20069;-65
2023/12/02 07:47:42;;;;;;;19.40;10.07;;;;;;;-0.40;80.41;100545.94;5024934;28;20040;-65
2023/12/02 07:50:07;;;;;;;20.23;10.88;;;;;;;-0.38;79.88;100537.53;5027154;28;20037;-65
2023/12/02 07:52:33;;;;;;;17.33;10.18;;;;;;;-0.33;80.52;100542.75;5022745;28;20059;-66
2023/12/02 07:54:58;;;;;;;16.88;10.25;;;;;;;-0.32;78.71;100511.47;5026089;28;20029;-66
2023/12/02 07:57:24;;;;;;;17.52;10.45;;;;;;;-0.29;78.18;100511.56;5023819;28;20413;-65
2023/12/02 07:59:49;;;;;;;15.18;9.15;;;;;;;-0.26;78.58;100526.91;5059897;28;20113;-65
2023/12/02 08:02:15;;;;;;;18.05;10.77;;;;;;;-0.25;78.25;100522.69;5005785;28;20381;-65
2023/12/02 08:04:40;;;;;;;19.65;11.13;;;;;;;-0.23;78.58;100538.81;5005835;28;20025;-65
2023/12/02 08:07:07;;;;;;;18.15;9.77;;;;;;;-0.25;78.83;100543.00;4994240;28;20033;-65
2023/12/02 08:09:33;;;;;;;18.27;9.63;;;;;;;-0.22;78.98;100551.59;5021462;28;20519;-65
2023/12/02 08:11:58;;;;;;;19.60;10.38;;;;;;;-0.22;79.88;100569.38;5055408;28;20053;-65
2023/12/02 08:14:24;;;;;;;17.50;9.90;;;;;;;-0.20;79.25;100569.41;5020162;28;20029;-65
2023/12/02 08:16:49;;;;;;;16.92;9.32;;;;;;;-0.21;79.31;100570.19;5020412;28;20041;-65
2023/12/02 08:19:15;;;;;;;16.23;9.23;;;;;;;-0.17;79.95;100577.97;5024511;28;20030;-66
2023/12/02 08:21:41;;;;;;;15.60;9.40;;;;;;;-0.15;79.92;100581.41;5016438;28;20408;-66
2023/12/02 08:24:07;;;;;;;18.15;10.23;;;;;;;-0.15;81.12;100606.81;5026196;28;20499;-65
2023/12/02 08:26:32;;;;;;;16.67;10.18;;;;;;;-0.08;80.10;100588.44;5025194;28;20428;-65
2023/12/02 08:28:58;;;;;;;16.58;9.68;;;;;;;-0.09;79.05;100574.00;5024513;28;20484;-65
2023/12/02 08:31:23;;;;;;;16.40;10.13;;;;;;;-0.08;79.25;100585.88;5022730;28;20022;-66
2023/12/02 08:33:49;;;;;;;18.52;9.57;;;;;;;-0.09;78.73;100578.19;5024879;28;20442;-65
2023/12/02 08:36:14;;;;;;;17.90;9.93;;;;;;;-0.12;78.86;100575.56;5034864;28;20144;-63
2023/12/02 08:38:39;;;;;;;18.15;10.05;;;;;;;-0.10;79.11;100589.19;5059843;28;20033;-66
2023/12/02 08:41:05;;;;;;;15.60;9.73;;;;;;;-0.09;78.78;100584.16;5020008;28;20061;-65
2023/12/02 08:43:31;;;;;;;19.85;11.27;;;;;;;-0.09;79.25;100598.53;5027118;28;20412;-66
2023/12/02 08:45:56;;;;;;;23.88;12.43;;;;;;;-0.05;79.36;100600.34;5024429;28;20484;-66
2023/12/02 08:48:22;;;;;;;21.50;11.77;;;;;;;-0.08;77.68;100577.41;5025157;28;20025;-65
2023/12/02 08:50:47;;;;;;;23.27;11.55;;;;;;;-0.11;77.41;100577.31;5026261;28;20041;-66
2023/12/02 08:53:12;;;;;;;21.75;12.10;;;;;;;-0.08;76.85;100560.47;5056491;28;20045;-65
2023/12/02 08:55:38;;;;;;;19.25;11.13;;;;;;;-0.08;77.05;100569.78;5029846;28;20029;-66
2023/12/02 08:58:03;;;;;;;19.00;11.93;;;;;;;-0.06;76.48;100558.84;5028386;28;20107;-66
2023/12/02 09:00:31;;;;;;;19.92;11.10;;;;;;;-0.06;75.44;100538.53;5025371;28;20522;-65
2023/12/02 09:02:56;;;;;;;22.48;11.13;;;;;;;-0.02;76.14;100554.72;5056323;28;20684;-66
2023/12/02 09:05:22;;;;;;;22.17;12.45;;;;;;;0.06;76.57;100560.88;5021246;28;20040;-66
2023/12/02 09:07:48;;;;;;;23.30;12.55;;;;;;;0.11;77.16;100580.53;5023976;28;20037;-65
2023/12/02 09:10:13;;;;;;;19.83;12.27;;;;;;;0.06;76.56;100564.28;5026865;28;20021;-65
2023/12/02 09:12:39;;;;;;;22.23;11.73;;;;;;;0.11;76.10;100564.44;5035534;28;20060;-65
2023/12/02 09:15:29;;;;;;;24.88;12.90;;;;;;;0.09;75.20;100548.28;5023735;28;20042;-65
2023/12/02 09:18:03;;;;;;;24.92;12.15;;;;;;;0.04;74.82;100538.00;5036610;28;20110;-65
2023/12/02 09:20:48;;;;;;;34.25;16.08;;;;;;;0.07;76.14;100562.63;5029243;28;20059;-66
2023/12/02 09:23:15;;;;;;;24.60;13.68;;;;;;;0.17;75.27;100555.31;5055476;28;20040;-66
2023/12/02 09:25:42;;;;;;;28.10;14.18;;;;;;;0.11;74.96;100544.97;5052881;28;20515;-66
2023/12/02 09:28:11;;;;;;;20.65;11.35;;;;;;;0.08;74.31;100534.69;5020501;28;20018;-66
2023/12/02 09:30:40;;;;;;;21.05;11.27;;;;;;;0.13;73.81;100533.19;5022994;28;20087;-66
2023/12/02 09:33:06;;;;;;;22.67;11.77;;;;;;;0.04;74.06;100535.44;5023501;28;20607;-66
2023/12/02 09:35:33;;;;;;;24.00;12.38;;;;;;;0.02;74.40;100549.75;5020353;28;20033;-65
2023/12/02 09:38:00;;;;;;;18.50;10.85;;;;;;;-0.01;74.89;100561.53;5022939;28;20036;-65
2023/12/02 09:40:34;;;;;;;21.13;11.52;;;;;;;0.03;74.42;100564.22;5026185;28;20479;-66
2023/12/02 09:43:31;;;;;;;27.58;13.68;;;;;;;0.07;75.21;100576.19;5053787;28;20042;-66
2023/12/02 09:46:19;;;;;;;23.52;12.95;;;;;;;0.13;75.14;100583.13;5057641;28;20578;-65
2023/12/02 09:48:52;;;;;;;28.17;15.18;;;;;;;0.01;74.93;100578.56;5022219;28;20064;-66
2023/12/02 09:51:33;;;;;;;37.25;17.83;;;;;;;-0.03;76.00;100609.75;5023869;28;20090;-66
2023/12/02 09:54:11;;;;;;;34.50;15.48;;;;;;;0.01;76.48;100621.75;5038716;28;20083;-66
2023/12/02 09:56:51;;;;;;;34.38;15.45;;;;;;;0.04;76.77;100619.28;5040060;28;20520;-66
2023/12/02 09:59:57;;;;;;;28.95;14.90;;;;;;;0.01;77.86;100649.69;5023228;28;20034;-66
2023/12/02 10:02:23;;;;;;;;;;;;;;;0.01;76.89;100626.81;5025168;28;20037;-66
2023/12/02 10:05:10;;;;;;;26.60;13.68;;;;;;;0.06;77.01;100622.75;5019308;28;19913;-66
2023/12/02 10:07:39;;;;;;;38.25;18.48;;;;;;;0.09;76.21;100612.66;5019603;28;20025;-67
2023/12/02 10:10:09;;;;;;;21.45;11.35;;;;;;;0.03;75.64;100592.16;5055454;28;20017;-66
2023/12/02 10:12:35;;;;;;;27.60;14.43;;;;;;;0.14;75.74;100597.59;5022824;28;20037;-66
2023/12/02 10:15:05;;;;;;;24.75;11.90;;;;;;;0.23;75.65;100597.00;5025451;28;20559;-66
2023/12/02 10:17:37;;;;;;;25.38;13.80;;;;;;;0.31;75.27;100585.38;5022203;28;20037;-66
2023/12/02 10:20:11;;;;;;;22.73;12.07;;;;;;;0.29;74.58;100581.94;5019251;28;20038;-66
2023/12/02 10:22:51;;;;;;;24.08;13.43;;;;;;;0.34;75.29;100581.25;5027301;28;20041;-66
2023/12/02 10:25:29;;;;;;;26.02;13.43;;;;;;;0.35;74.12;100559.22;5024481;28;20072;-66
2023/12/02 10:28:01;;;;;;;28.10;14.05;;;;;;;0.27;75.03;100581.00;5027017;28;20539;-66
2023/12/02 10:30:28;;;;;;;25.48;14.18;;;;;;;0.36;75.38;100583.81;5037480;28;21088;-66
2023/12/02 10:33:06;;;;;;;25.50;13.57;;;;;;;0.30;74.84;100579.41;5031882;28;20041;-66
2023/12/02 10:35:45;;;;;;;22.23;11.65;;;;;;;0.35;74.80;100575.31;5064071;28;20041;-66
2023/12/02 10:38:36;;;;;;;25.98;13.82;;;;;;;0.31;73.84;100550.66;5028334;28;20025;-66
2023/12/02 10:41:30;;;;;;;29.88;14.63;;;;;;;0.31;74.68;100570.13;5044274;28;20079;-66
2023/12/02 10:43:58;;;;;;;26.52;14.88;;;;;;;0.27;74.32;100569.16;5022100;28;20037;-66
2023/12/02 10:46:25;;;;;;;31.73;18.42;;;;;;;0.29;73.56;100551.44;5024054;28;20396;-66
2023/12/02 10:48:54;;;;;;;20.58;11.13;;;;;;;0.25;73.28;100547.94;5024344;28;20045;-66
2023/12/02 10:51:22;;;;;;;23.83;12.57;;;;;;;0.25;74.09;100565.72;5027875;28;20041;-67
2023/12/02 10:53:50;;;;;;;22.00;12.25;;;;;;;0.33;74.67;100586.25;5006353;28;20034;-66
2023/12/02 10:56:23;;;;;;;22.05;11.93;;;;;;;0.31;74.69;100585.38;5025082;28;20114;-66
2023/12/02 10:58:52;;;;;;;24.95;12.15;;;;;;;0.40;73.60;100568.72;5023955;28;20033;-66
2023/12/02 11:01:26;;;;;;;21.15;11.50;;;;;;;0.40;73.45;100558.53;5037346;28;20501;-66
2023/12/02 11:04:02;;;;;;;28.42;12.52;;;;;;;0.48;72.59;100544.34;5023881;28;20497;-66
2023/12/02 11:06:32;;;;;;;23.38;12.05;;;;;;;0.46;72.35;100534.97;5059402;28;20062;-66
2023/12/02 11:09:16;;;;;;;24.40;12.13;;;;;;;0.47;71.40;100518.91;5020864;28;20080;-66
2023/12/02 11:11:45;;;;;;;24.40;12.52;;;;;;;0.51;72.25;100536.81;5018509;28;20516;-66
2023/12/02 11:14:18;;;;;;;24.25;12.05;;;;;;;0.60;72.26;100533.66;5025685;28;20404;-66